Time;durP1;ratioP1;P1;durP2;ratioP2;P2;SDS_P1;SDS_P2;PMS_P1;PMS_P2;Temp;Humidity;BMP_temperature;BMP_pressure;BME280_temperature;BME280_humidity;BME280_pressure;Samples;Min_cycle;Max_cycle;Signal;HPM_P1;HPM_P2
2023/08/21 04:00:40;;;;;;;12.45;8.63;;;;;;;20.95;100.00;100820.16;5474076;27;20123;-84
2023/08/21 04:03:59;;;;;;;15.48;8.75;;;;;;;20.94;100.00;100826.66;5392815;33;31461;-84
2023/08/21 04:07:23;;;;;;;12.85;8.88;;;;;;;20.90;100.00;100826.31;5382812;33;33130;-84
2023/08/21 04:11:34;;;;;;;13.35;9.05;;;;;;;20.92;100.00;100817.88;5363245;33;31815;-84
2023/08/21 04:15:36;;;;;;;12.95;8.70;;;;;;;20.93;100.00;100816.81;5390855;33;32943;-84
2023/08/21 04:19:32;;;;;;;14.63;8.98;;;;;;;20.87;100.00;100818.56;5381576;32;32154;-84
2023/08/21 04:23:30;;;;;;;12.90;9.23;;;;;;;20.91;100.00;100821.66;5416125;32;32456;-84
2023/08/21 04:26:55;;;;;;;15.95;10.05;;;;;;;21.03;100.00;100820.63;5348402;33;33023;-84
2023/08/21 04:30:07;;;;;;;12.30;9.48;;;;;;;21.10;100.00;100825.16;5358235;33;33353;-84
2023/08/21 04:33:13;;;;;;;13.88;9.30;;;;;;;21.22;100.00;100829.56;5346171;33;33364;-84
2023/08/21 04:36:17;;;;;;;10.75;8.30;;;;;;;21.29;100.00;100833.03;5346797;33;33222;-84
2023/08/21 04:39:20;;;;;;;13.60;10.00;;;;;;;21.35;100.00;100833.97;5359626;33;33321;-84
2023/08/21 04:42:23;;;;;;;12.35;9.27;;;;;;;21.47;100.00;100836.75;5348146;33;33338;-84
2023/08/21 04:45:26;;;;;;;12.23;9.18;;;;;;;21.52;100.00;100832.22;5348168;33;33172;-84
2023/08/21 04:48:29;;;;;;;13.27;9.38;;;;;;;21.61;100.00;100832.66;5335907;33;33532;-84
2023/08/21 04:51:32;;;;;;;12.73;9.48;;;;;;;21.68;100.00;100833.41;5346156;33;34034;-85
2023/08/21 04:54:35;;;;;;;14.50;9.40;;;;;;;21.78;100.00;100838.25;5346672;33;32357;-85
2023/08/21 04:57:39;;;;;;;13.18;9.07;;;;;;;21.86;100.00;100837.06;5358378;33;33698;-84
2023/08/21 05:00:45;;;;;;;14.07;9.50;;;;;;;21.95;100.00;100844.66;5346322;33;33186;-85
2023/08/21 05:03:49;;;;;;;13.68;9.70;;;;;;;22.02;100.00;100841.78;5377464;33;33123;-85
2023/08/21 05:06:53;;;;;;;13.50;9.43;;;;;;;22.11;100.00;100850.47;5384644;33;33863;-85
2023/08/21 05:10:00;;;;;;;13.77;9.63;;;;;;;22.24;100.00;100849.41;5397549;33;33004;-85
2023/08/21 05:13:04;;;;;;;13.77;9.85;;;;;;;22.37;100.00;100846.34;5384488;32;34084;-85
2023/08/21 05:16:07;;;;;;;14.65;8.68;;;;;;;22.53;100.00;100855.72;5397498;33;33329;-85
2023/08/21 05:19:10;;;;;;;13.15;9.27;;;;;;;22.64;100.00;100857.59;5384005;33;33805;-85
2023/08/21 05:22:13;;;;;;;14.20;9.73;;;;;;;22.77;100.00;100854.53;5396036;33;33100;-85
2023/08/21 05:25:17;;;;;;;14.45;9.60;;;;;;;22.82;100.00;100860.13;5384006;33;33028;-84
2023/08/21 05:28:20;;;;;;;14.35;10.57;;;;;;;22.91;100.00;100867.94;5384318;33;33082;-84
2023/08/21 05:31:22;;;;;;;12.93;10.05;;;;;;;23.03;100.00;100860.50;5395083;32;33408;-84
2023/08/21 05:34:25;;;;;;;11.98;8.55;;;;;;;23.21;100.00;100863.00;5397258;33;34990;-84
2023/08/21 05:37:28;;;;;;;12.48;8.43;;;;;;;23.36;100.00;100875.31;5397197;33;33754;-84
2023/08/21 05:40:31;;;;;;;12.00;8.52;;;;;;;23.47;100.00;100866.16;5395959;33;34122;-88
2023/08/21 05:43:34;;;;;;;15.25;9.07;;;;;;;23.58;100.00;100862.47;5396140;32;34356;-88
2023/08/21 05:46:38;;;;;;;12.15;8.63;;;;;;;23.71;100.00;100870.38;5384020;33;34232;-89
2023/08/21 05:49:41;;;;;;;13.25;8.30;;;;;;;23.82;100.00;100868.59;5384335;33;33287;-85
2023/08/21 05:52:45;;;;;;;13.18;8.93;;;;;;;23.93;100.00;100869.59;5396330;32;33405;-84
2023/08/21 05:55:48;;;;;;;10.52;8.60;;;;;;;24.06;100.00;100874.69;5397087;33;33566;-84
2023/08/21 05:58:51;;;;;;;10.90;8.30;;;;;;;24.14;100.00;100874.25;5396091;33;33295;-84
2023/08/21 06:01:54;;;;;;;9.82;8.32;;;;;;;24.24;100.00;100878.22;5396224;32;34472;-84
2023/08/21 06:05:00;;;;;;;10.77;8.52;;;;;;;24.37;100.00;100872.34;5396333;32;33370;-84
2023/08/21 06:08:03;;;;;;;11.70;8.55;;;;;;;24.48;100.00;100874.13;5396487;32;34003;-84
2023/08/21 06:11:06;;;;;;;10.73;8.68;;;;;;;24.60;100.00;100866.56;5384127;33;33753;-84
2023/08/21 06:14:09;;;;;;;11.32;8.15;;;;;;;24.78;100.00;100870.87;5399109;33;33589;-85
2023/08/21 06:17:12;;;;;;;10.82;8.32;;;;;;;24.94;100.00;100873.78;5400887;32;34504;-84
2023/08/21 06:20:15;;;;;;;10.45;8.52;;;;;;;25.06;100.00;100874.44;5395993;33;33030;-85
2023/08/21 06:23:20;;;;;;;11.40;8.35;;;;;;;25.21;100.00;100876.50;5383729;32;33781;-84
2023/08/21 06:26:23;;;;;;;11.38;8.20;;;;;;;25.41;100.00;100879.44;5397199;33;34343;-84
2023/08/21 06:29:26;;;;;;;11.50;8.40;;;;;;;25.60;100.00;100882.59;5396521;32;33108;-84
2023/08/21 06:32:29;;;;;;;12.13;7.75;;;;;;;25.74;100.00;100880.19;5396632;32;33809;-84
2023/08/21 06:35:36;;;;;;;11.23;8.07;;;;;;;25.93;100.00;100878.69;5396191;33;33361;-84
2023/08/21 06:38:39;;;;;;;12.37;7.68;;;;;;;26.09;100.00;100878.75;5384835;32;34073;-84
2023/08/21 06:41:42;;;;;;;11.82;7.75;;;;;;;26.16;100.00;100877.41;5397328;33;33468;-84
2023/08/21 06:44:48;;;;;;;9.32;7.43;;;;;;;26.23;100.00;100883.50;5395976;33;34078;-84
2023/08/21 06:47:51;;;;;;;10.02;8.00;;;;;;;26.38;100.00;100879.12;5397061;33;33584;-83
2023/08/21 06:50:54;;;;;;;9.23;7.50;;;;;;;26.46;100.00;100882.19;5384227;33;33820;-83
2023/08/21 06:53:57;;;;;;;10.48;7.72;;;;;;;26.62;100.00;100877.59;5372921;33;33423;-83
2023/08/21 06:56:59;;;;;;;9.18;6.95;;;;;;;26.86;100.00;100875.16;5373231;33;34708;-84
2023/08/21 07:00:07;;;;;;;31.02;12.65;;;;;;;27.03;100.00;100868.53;5390183;33;33480;-84
2023/08/21 07:03:10;;;;;;;24.12;11.77;;;;;;;27.24;100.00;100874.94;5379498;33;33430;-84
2023/08/21 07:06:13;;;;;;;15.18;8.07;;;;;;;27.45;100.00;100868.25;5360337;33;33873;-85
2023/08/21 07:09:16;;;;;;;12.13;7.70;;;;;;;27.48;100.00;100866.88;5371438;33;33056;-85
2023/08/21 07:12:19;;;;;;;12.35;7.93;;;;;;;27.63;100.00;100872.38;5393234;33;33824;-85
2023/08/21 07:15:22;;;;;;;9.15;6.95;;;;;;;27.77;100.00;100867.91;5384351;33;34806;-84
2023/08/21 07:18:25;;;;;;;8.93;7.10;;;;;;;27.95;99.01;100868.44;5358362;33;33164;-84
2023/08/21 07:21:28;;;;;;;11.95;8.18;;;;;;;28.11;97.14;100866.44;5358858;33;33301;-84
2023/08/21 07:24:36;;;;;;;11.13;7.93;;;;;;;28.17;96.51;100868.94;5362453;33;34168;-84
2023/08/21 07:27:39;;;;;;;8.98;7.22;;;;;;;28.30;96.54;100869.41;5357581;33;33239;-84
2023/08/21 07:30:42;;;;;;;8.18;6.78;;;;;;;28.56;93.56;100868.19;5346561;33;33565;-84
2023/08/21 07:33:44;;;;;;;9.93;7.32;;;;;;;28.59;93.89;100873.16;5361246;33;33365;-84
2023/08/21 07:36:48;;;;;;;9.90;7.47;;;;;;;28.77;92.29;100870.84;5377221;33;34015;-84
2023/08/21 07:39:52;;;;;;;11.52;7.97;;;;;;;28.72;90.85;100868.91;5377620;33;33401;-84
2023/08/21 07:42:55;;;;;;;9.77;7.50;;;;;;;28.83;90.69;100872.44;5376544;33;32171;-85
2023/08/21 07:46:01;;;;;;;7.87;7.07;;;;;;;28.93;88.86;100873.22;5365876;33;33789;-84
2023/08/21 07:49:04;;;;;;;9.55;7.28;;;;;;;29.05;86.74;100874.81;5371623;33;33666;-88
2023/08/21 07:52:07;;;;;;;8.63;7.15;;;;;;;29.27;85.37;100874.34;5377777;33;34234;-89
2023/08/21 07:55:10;;;;;;;11.70;8.00;;;;;;;29.38;87.50;100875.91;5356243;33;33360;-89
2023/08/21 07:58:13;;;;;;;11.77;7.75;;;;;;;29.45;87.82;100879.16;5378110;33;33161;-86
2023/08/21 08:01:16;;;;;;;10.75;7.60;;;;;;;29.57;86.18;100876.84;5392503;33;33315;-85
2023/08/21 08:04:20;;;;;;;10.93;7.82;;;;;;;29.57;85.02;100876.84;5398712;32;33007;-85
2023/08/21 08:07:23;;;;;;;11.25;7.35;;;;;;;29.64;83.70;100884.03;5373909;32;33350;-85
2023/08/21 08:10:26;;;;;;;14.75;7.95;;;;;;;29.63;83.27;100879.56;5384844;33;33297;-85
2023/08/21 08:13:29;;;;;;;9.10;7.43;;;;;;;29.81;84.33;100879.66;5372833;33;33561;-85
2023/08/21 08:16:32;;;;;;;13.20;7.53;;;;;;;29.91;83.01;100883.44;5385206;33;33307;-84
2023/08/21 08:19:35;;;;;;;9.35;7.30;;;;;;;30.08;84.17;100875.47;5372935;33;33041;-85
2023/08/21 08:22:39;;;;;;;12.57;7.53;;;;;;;30.34;82.24;100880.72;5384867;32;33307;-85
2023/08/21 08:25:42;;;;;;;9.05;7.20;;;;;;;30.41;82.30;100876.44;5384580;32;33292;-85
2023/08/21 08:28:45;;;;;;;11.98;8.77;;;;;;;30.41;80.67;100870.06;5384704;33;33090;-84
2023/08/21 08:31:48;;;;;;;8.45;7.47;;;;;;;30.59;78.93;100868.41;5384937;32;33391;-85
2023/08/21 08:34:52;;;;;;;9.95;7.95;;;;;;;30.54;78.19;100869.34;5372758;33;32829;-84
2023/08/21 08:37:57;;;;;;;8.18;7.05;;;;;;;30.54;77.89;100869.34;5386428;33;33410;-83
2023/08/21 08:41:02;;;;;;;8.48;6.85;;;;;;;30.76;78.88;100865.94;5392408;32;34181;-84
2023/08/21 08:44:05;;;;;;;10.15;7.62;;;;;;;30.85;77.82;100871.66;5416605;32;33252;-84
2023/08/21 08:47:11;;;;;;;8.63;7.05;;;;;;;30.99;77.45;100869.78;5404539;32;34190;-84
2023/08/21 08:50:14;;;;;;;8.85;7.25;;;;;;;31.00;71.82;100868.63;5403032;32;33386;-84
2023/08/21 08:53:19;;;;;;;10.48;7.32;;;;;;;31.02;76.22;100871.94;5402494;32;33277;-84
2023/08/21 08:56:21;;;;;;;8.77;6.97;;;;;;;31.08;73.64;100886.59;5415130;32;33414;-84
2023/08/21 08:59:25;;;;;;;7.55;6.75;;;;;;;31.15;73.45;100879.53;5416274;32;33340;-84
2023/08/21 09:02:28;;;;;;;10.70;7.07;;;;;;;31.26;72.24;100879.34;5390901;32;34041;-84
2023/08/21 09:05:34;;;;;;;9.60;7.30;;;;;;;31.38;72.73;100877.75;5390008;32;33145;-84
2023/08/21 09:08:37;;;;;;;8.45;6.25;;;;;;;31.45;71.00;100882.94;5416111;32;34899;-85
2023/08/21 09:11:45;;;;;;;9.25;7.30;;;;;;;31.67;70.75;100875.84;5390732;32;33472;-84
2023/08/21 09:14:50;;;;;;;11.45;7.37;;;;;;;31.70;68.51;100875.22;5428090;32;33804;-85
2023/08/21 09:17:54;;;;;;;9.43;7.03;;;;;;;31.59;69.84;100877.37;5434373;32;34879;-85
2023/08/21 09:20:57;;;;;;;7.80;6.90;;;;;;;31.78;71.64;100864.19;5402989;32;33383;-85
2023/08/21 09:24:04;;;;;;;9.82;7.10;;;;;;;32.06;69.31;100867.03;5402666;32;33245;-84
2023/08/21 09:27:15;;;;;;;8.05;6.57;;;;;;;32.28;70.69;100864.31;5415963;32;34791;-85
2023/08/21 09:30:18;;;;;;;12.25;7.35;;;;;;;31.91;67.53;100858.97;5416154;32;33665;-84
2023/08/21 09:33:22;;;;;;;8.98;6.68;;;;;;;32.14;67.06;100859.88;5416851;32;33637;-84
2023/08/21 09:36:25;;;;;;;11.60;6.47;;;;;;;32.10;66.71;100856.91;5390578;32;33072;-84
2023/08/21 09:39:36;;;;;;;7.72;6.75;;;;;;;32.30;67.11;100850.87;5402481;32;33267;-84
2023/08/21 09:42:39;;;;;;;10.50;6.90;;;;;;;32.41;64.08;100847.84;5402977;32;34086;-85
2023/08/21 09:45:46;;;;;;;7.82;6.40;;;;;;;32.63;63.02;100842.38;5401049;32;34469;-84
2023/08/21 09:48:51;;;;;;;8.18;6.75;;;;;;;33.00;63.12;100847.94;5413879;32;33043;-84
2023/08/21 09:51:55;;;;;;;8.48;6.57;;;;;;;33.00;64.85;100843.19;5402882;32;33049;-84
2023/08/21 09:55:00;;;;;;;9.80;6.60;;;;;;;33.10;66.97;100844.88;5403490;32;33029;-84
2023/08/21 09:58:03;;;;;;;8.00;6.50;;;;;;;33.28;62.61;100835.47;5392485;32;33509;-84
2023/08/21 10:01:14;;;;;;;7.32;6.15;;;;;;;33.31;60.79;100836.78;5413909;32;34320;-84
2023/08/21 10:04:18;;;;;;;8.23;5.85;;;;;;;33.33;58.48;100832.53;5411561;32;32731;-84
2023/08/21 10:07:24;;;;;;;8.35;5.93;;;;;;;33.34;60.19;100827.78;5416344;32;33392;-84
2023/08/21 10:10:29;;;;;;;7.75;6.15;;;;;;;33.58;57.93;100827.41;5424179;32;34966;-84
2023/08/21 10:13:33;;;;;;;6.70;6.10;;;;;;;33.62;57.09;100831.22;5429718;32;33538;-84
2023/08/21 10:16:37;;;;;;;9.18;5.85;;;;;;;33.74;56.10;100833.41;5414832;32;33702;-83
2023/08/21 10:19:39;;;;;;;9.73;6.12;;;;;;;33.82;55.57;100825.06;5415934;32;34034;-83
2023/08/21 10:22:44;;;;;;;7.37;5.90;;;;;;;33.75;56.51;100821.09;5390158;32;33397;-84
2023/08/21 10:25:47;;;;;;;7.50;6.28;;;;;;;33.75;54.98;100812.72;5413060;32;33234;-84
2023/08/21 10:28:55;;;;;;;6.97;6.28;;;;;;;34.05;55.73;100811.84;5390119;32;34041;-84
2023/08/21 10:32:03;;;;;;;6.40;5.70;;;;;;;34.12;52.48;100816.13;5414896;32;33170;-84
2023/08/21 10:35:14;;;;;;;7.62;6.43;;;;;;;34.42;52.48;100812.38;5403182;32;33226;-84
2023/08/21 10:38:19;;;;;;;9.77;6.80;;;;;;;34.49;55.92;100800.72;5416099;32;33320;-83
2023/08/21 10:41:26;;;;;;;8.70;6.68;;;;;;;34.75;56.41;100809.09;5418910;32;32991;-83
2023/08/21 10:44:41;;;;;;;7.22;6.00;;;;;;;35.16;53.97;100802.13;5418108;32;34100;-83
2023/08/21 10:47:46;;;;;;;8.25;6.37;;;;;;;35.17;51.24;100801.81;5415175;32;33481;-83
2023/08/21 10:50:50;;;;;;;8.85;6.60;;;;;;;35.26;50.00;100804.59;5406199;32;33107;-83
2023/08/21 10:53:53;;;;;;;7.45;6.32;;;;;;;35.51;48.52;100810.41;5389025;32;33628;-83
2023/08/21 10:56:56;;;;;;;7.65;6.43;;;;;;;35.82;48.61;100796.13;5397880;32;33163;-83
2023/08/21 11:00:03;;;;;;;10.55;6.57;;;;;;;35.79;48.59;100797.62;5394831;32;33298;-83
2023/08/21 11:03:09;;;;;;;8.07;5.78;;;;;;;36.10;46.88;100802.09;5397401;32;33876;-83
2023/08/21 11:06:12;;;;;;;7.60;6.18;;;;;;;36.21;45.02;100797.69;5385253;32;34158;-83
2023/08/21 11:09:16;;;;;;;6.93;6.07;;;;;;;36.37;43.25;100788.69;5394698;32;33407;-83
2023/08/21 11:12:21;;;;;;;6.60;5.85;;;;;;;36.36;45.36;100799.09;5409162;32;34076;-87
2023/08/21 11:15:25;;;;;;;7.62;5.97;;;;;;;36.80;43.33;100795.91;5400027;32;33486;-87
2023/08/21 11:18:32;;;;;;;10.00;6.40;;;;;;;37.47;42.98;100785.41;5401059;32;33368;-87
2023/08/21 11:21:35;;;;;;;7.32;5.87;;;;;;;37.98;40.33;100778.31;5415137;32;33697;-84
2023/08/21 11:24:38;;;;;;;7.75;5.93;;;;;;;37.98;37.95;100783.13;5383190;33;33996;-83
2023/08/21 11:27:41;;;;;;;6.18;5.28;;;;;;;37.70;38.89;100789.44;5398111;33;33410;-83
2023/08/21 11:30:45;;;;;;;5.75;5.20;;;;;;;38.36;36.21;100788.28;5405423;32;33363;-84
2023/08/21 11:33:51;;;;;;;7.97;4.97;;;;;;;39.07;35.69;100781.09;5397438;32;33664;-84
2023/08/21 11:36:55;;;;;;;5.80;5.12;;;;;;;39.13;33.87;100784.47;5398835;33;32538;-82
2023/08/21 11:39:58;;;;;;;9.35;5.80;;;;;;;39.66;32.46;100782.19;5390360;33;33459;-83
2023/08/21 11:43:03;;;;;;;6.55;5.35;;;;;;;40.31;31.59;100764.75;5365198;32;34433;-83
2023/08/21 11:46:08;;;;;;;5.82;4.90;;;;;;;41.73;30.24;100773.47;5389257;33;32881;-83
2023/08/21 11:49:11;;;;;;;5.70;5.20;;;;;;;42.56;28.58;100770.56;5376326;32;33799;-83
2023/08/21 11:52:14;;;;;;;6.37;5.30;;;;;;;42.91;28.30;100775.03;5376418;32;33417;-83
2023/08/21 11:55:17;;;;;;;6.32;4.82;;;;;;;43.03;27.18;100769.91;5388451;32;32805;-83
2023/08/21 11:58:20;;;;;;;7.00;4.87;;;;;;;44.49;27.21;100763.63;5394949;32;33622;-84
2023/08/21 12:01:23;;;;;;;7.28;4.78;;;;;;;45.16;24.86;100759.31;5394663;32;34114;-84
2023/08/21 12:04:27;;;;;;;5.57;5.07;;;;;;;44.92;24.15;100752.37;5406577;32;33484;-84
2023/08/21 12:07:30;;;;;;;5.57;5.03;;;;;;;45.65;23.71;100754.84;5394294;32;34299;-84
2023/08/21 12:10:33;;;;;;;8.38;5.18;;;;;;;46.02;23.31;100750.72;5406791;32;33226;-84
2023/08/21 12:13:36;;;;;;;5.70;5.10;;;;;;;46.32;22.93;100750.19;5406147;32;34460;-84
2023/08/21 12:16:41;;;;;;;4.85;4.45;;;;;;;46.40;23.55;100750.19;5394592;32;32943;-85
2023/08/21 12:19:44;;;;;;;5.72;4.90;;;;;;;47.08;23.85;100750.56;5404396;32;32990;-84
2023/08/21 12:22:47;;;;;;;5.70;4.32;;;;;;;46.51;23.63;100751.75;5405771;32;32871;-84
2023/08/21 12:25:49;;;;;;;5.50;4.43;;;;;;;46.10;22.53;100742.94;5404850;32;33753;-84
2023/08/21 12:28:52;;;;;;;4.78;4.37;;;;;;;47.10;21.79;100752.97;5389533;32;32960;-84
2023/08/21 12:31:55;;;;;;;4.50;4.07;;;;;;;47.33;22.20;100744.63;5401105;32;33306;-85
2023/08/21 12:34:58;;;;;;;6.05;4.00;;;;;;;48.53;18.83;100740.03;5425093;32;35056;-85
2023/08/21 12:38:10;;;;;;;4.53;4.12;;;;;;;48.13;19.46;100736.91;5423878;32;34808;-82
2023/08/21 12:41:14;;;;;;;4.95;3.95;;;;;;;48.49;21.58;100733.53;5403518;32;33370;-83
2023/08/21 12:44:18;;;;;;;3.97;3.58;;;;;;;49.60;19.01;100737.50;5398649;32;32907;-82
2023/08/21 12:47:21;;;;;;;4.07;3.70;;;;;;;49.31;17.90;100740.06;5390146;32;33615;-82
2023/08/21 12:50:23;;;;;;;3.87;3.53;;;;;;;49.67;18.66;100732.44;5379295;32;32647;-83
2023/08/21 12:53:26;;;;;;;3.75;3.45;;;;;;;49.09;18.76;100728.16;5386709;32;34453;-82
2023/08/21 12:56:30;;;;;;;4.18;3.70;;;;;;;50.04;17.99;100730.47;5400754;32;33979;-82
2023/08/21 12:59:33;;;;;;;6.40;3.53;;;;;;;50.16;17.63;100729.00;5400397;32;33111;-82
2023/08/21 13:02:35;;;;;;;4.30;3.90;;;;;;;50.19;17.53;100722.38;5397057;32;33420;-82
2023/08/21 13:05:40;;;;;;;4.00;3.70;;;;;;;50.42;18.53;100724.34;5378810;33;33636;-82
2023/08/21 13:08:43;;;;;;;4.28;3.87;;;;;;;49.98;17.59;100720.78;5398538;32;33377;-82
2023/08/21 13:11:46;;;;;;;3.40;3.10;;;;;;;51.23;17.43;100723.59;5394824;32;34140;-82
2023/08/21 13:14:48;;;;;;;4.78;3.78;;;;;;;51.39;16.21;100722.78;5415912;32;33281;-83
2023/08/21 13:17:52;;;;;;;4.05;3.08;;;;;;;51.74;16.32;100716.53;5402808;32;34120;-86
2023/08/21 13:20:55;;;;;;;4.12;3.22;;;;;;;51.69;16.72;100707.22;5403249;32;33649;-87
2023/08/21 13:23:58;;;;;;;3.40;3.10;;;;;;;51.44;15.51;100707.09;5403329;32;33376;-87
2023/08/21 13:27:05;;;;;;;5.18;3.10;;;;;;;51.81;15.67;100702.78;5416637;32;33156;-83
2023/08/21 13:30:09;;;;;;;3.83;3.30;;;;;;;51.46;15.19;100704.56;5402676;32;33989;-83
2023/08/21 13:33:15;;;;;;;3.90;3.10;;;;;;;52.00;14.66;100697.31;5390769;32;33833;-83
2023/08/21 13:36:18;;;;;;;3.47;3.17;;;;;;;51.06;15.19;100698.25;5416656;32;33665;-83
2023/08/21 13:39:22;;;;;;;3.72;3.33;;;;;;;50.97;15.84;100690.31;5417598;32;34586;-83
2023/08/21 13:42:25;;;;;;;3.92;3.55;;;;;;;51.30;16.02;100695.97;5423126;32;33138;-83
2023/08/21 13:45:27;;;;;;;3.40;3.10;;;;;;;51.33;15.59;100697.97;5416474;32;34762;-83
2023/08/21 13:48:31;;;;;;;3.22;2.92;;;;;;;49.91;15.99;100689.44;5418343;32;33760;-83
2023/08/21 13:51:34;;;;;;;3.75;2.97;;;;;;;49.87;16.34;100688.69;5402135;32;33288;-83
2023/08/21 13:54:37;;;;;;;3.95;3.10;;;;;;;49.68;17.20;100693.19;5403055;32;34093;-83
2023/08/21 13:57:40;;;;;;;3.40;2.80;;;;;;;50.44;16.65;100684.59;5390016;32;33602;-82
2023/08/21 14:00:46;;;;;;;4.50;2.97;;;;;;;50.10;16.60;100684.94;5415581;32;32977;-83
2023/08/21 14:03:49;;;;;;;3.17;2.93;;;;;;;49.65;16.61;100683.41;5392206;32;340785;-83
2023/08/21 14:06:52;;;;;;;3.80;3.10;;;;;;;48.66;18.41;100683.12;5402435;32;33575;-83
2023/08/21 14:09:57;;;;;;;3.65;3.22;;;;;;;48.40;18.26;100676.16;5402504;32;33358;-83
2023/08/21 14:13:03;;;;;;;3.58;3.28;;;;;;;47.05;18.64;100677.28;5390169;32;33376;-83
2023/08/21 14:16:06;;;;;;;3.58;3.28;;;;;;;45.20;21.20;100674.06;5416080;32;32890;-83
2023/08/21 14:19:09;;;;;;;4.37;3.58;;;;;;;43.53;22.07;100661.78;5403120;32;33582;-83
2023/08/21 14:22:12;;;;;;;3.60;3.30;;;;;;;41.83;26.97;100676.66;5386276;32;34172;-83
2023/08/21 14:25:16;;;;;;;3.92;3.60;;;;;;;40.33;26.49;100660.81;5401834;32;33359;-83
2023/08/21 14:28:19;;;;;;;4.07;3.67;;;;;;;39.30;28.31;100662.19;5401663;32;33236;-83
2023/08/21 14:31:22;;;;;;;4.60;3.90;;;;;;;38.53;29.35;100664.22;5415131;32;32327;-83
2023/08/21 14:34:29;;;;;;;8.02;4.35;;;;;;;38.11;29.48;100670.25;5414731;32;33788;-83
2023/08/21 14:37:32;;;;;;;4.65;3.85;;;;;;;37.60;30.42;100660.66;5414510;32;32853;-83
2023/08/21 14:40:35;;;;;;;4.10;3.80;;;;;;;36.85;31.16;100652.56;5401226;32;34611;-83
2023/08/21 14:43:38;;;;;;;4.60;4.10;;;;;;;36.50;32.37;100648.13;5414983;32;33235;-82
2023/08/21 14:46:43;;;;;;;4.32;3.92;;;;;;;36.11;32.48;100649.53;5401870;32;33282;-82
2023/08/21 14:49:46;;;;;;;4.10;3.70;;;;;;;36.07;32.96;100648.59;5389538;32;34121;-81
2023/08/21 14:52:52;;;;;;;5.05;3.85;;;;;;;35.76;32.99;100657.41;5402095;32;33221;-82
2023/08/21 14:55:54;;;;;;;5.07;4.20;;;;;;;35.34;34.41;100651.72;5389428;32;32929;-82
2023/08/21 14:58:57;;;;;;;4.45;3.87;;;;;;;35.14;34.38;100653.31;5402286;32;33419;-84
2023/08/21 15:02:00;;;;;;;4.45;4.05;;;;;;;34.94;36.93;100650.06;5388628;32;34422;-82
2023/08/21 15:05:06;;;;;;;4.97;4.47;;;;;;;34.70;35.17;100650.66;5401615;32;33009;-82
2023/08/21 15:08:09;;;;;;;5.57;4.43;;;;;;;34.68;37.19;100641.78;5415326;32;33541;-82
2023/08/21 15:11:12;;;;;;;5.57;4.40;;;;;;;34.53;38.61;100642.31;5414846;32;33285;-83
2023/08/21 15:14:15;;;;;;;4.75;4.22;;;;;;;34.18;37.21;100638.75;5401478;32;33852;-82
2023/08/21 15:17:18;;;;;;;4.43;4.03;;;;;;;33.86;36.72;100643.66;5415408;32;33277;-82
2023/08/21 15:20:21;;;;;;;5.22;4.45;;;;;;;33.72;36.72;100638.22;5417905;32;33421;-83
2023/08/21 15:23:27;;;;;;;5.18;4.68;;;;;;;33.79;37.34;100637.75;5407029;32;34249;-87
2023/08/21 15:26:30;;;;;;;4.22;3.85;;;;;;;33.72;36.79;100651.38;5409238;32;34892;-87
2023/08/21 15:29:33;;;;;;;5.40;4.22;;;;;;;33.37;37.85;100637.34;5400530;32;33669;-87
2023/08/21 15:32:35;;;;;;;6.70;4.68;;;;;;;33.26;40.07;100644.34;5400559;32;33262;-84
2023/08/21 15:35:40;;;;;;;7.12;4.90;;;;;;;33.19;41.13;100642.06;5400880;32;33370;-83
2023/08/21 15:38:42;;;;;;;6.40;4.72;;;;;;;33.15;42.51;100636.31;5400837;32;33674;-83
2023/08/21 15:41:45;;;;;;;8.18;5.75;;;;;;;33.02;44.16;100637.22;5390661;32;33323;-83
2023/08/21 15:44:48;;;;;;;5.28;4.57;;;;;;;32.96;45.08;100632.91;5394958;32;33691;-83
2023/08/21 15:47:51;;;;;;;5.95;5.43;;;;;;;32.82;43.76;100638.62;5400994;32;33669;-83
2023/08/21 15:50:54;;;;;;;6.15;5.20;;;;;;;32.76;44.50;100625.94;5400495;32;34317;-83
2023/08/21 15:53:57;;;;;;;5.93;5.10;;;;;;;32.72;47.20;100625.75;5400310;32;33251;-83
2023/08/21 15:57:01;;;;;;;5.75;5.15;;;;;;;32.57;49.43;100626.19;5388518;32;33941;-83
2023/08/21 16:00:05;;;;;;;5.53;4.80;;;;;;;32.38;48.35;100625.53;5400420;32;33577;-83
2023/08/21 16:03:08;;;;;;;6.90;4.97;;;;;;;32.23;46.58;100626.75;5400560;32;34927;-83
2023/08/21 16:06:11;;;;;;;6.70;4.45;;;;;;;32.28;45.12;100619.09;5400421;32;33313;-84
2023/08/21 16:09:17;;;;;;;5.37;4.72;;;;;;;32.25;41.76;100614.16;5400451;32;31774;-84
2023/08/21 16:12:23;;;;;;;4.87;4.03;;;;;;;32.20;44.81;100614.28;5413671;32;33418;-83
2023/08/21 16:15:26;;;;;;;5.28;4.53;;;;;;;32.02;40.49;100609.75;5402238;32;33371;-83
2023/08/21 16:18:29;;;;;;;4.47;3.92;;;;;;;31.92;43.43;100615.56;5415907;32;34362;-83
2023/08/21 16:21:32;;;;;;;6.03;3.60;;;;;;;31.77;43.29;100608.38;5401510;32;33953;-83
2023/08/21 16:24:35;;;;;;;5.20;3.90;;;;;;;31.63;42.02;100611.19;5403620;32;33491;-84
2023/08/21 16:27:39;;;;;;;4.32;3.92;;;;;;;31.54;45.53;100618.66;5417874;32;33526;-82
2023/08/21 16:30:42;;;;;;;4.87;4.20;;;;;;;31.43;43.04;100617.22;5423805;32;33460;-84
2023/08/21 16:33:45;;;;;;;4.85;4.37;;;;;;;31.39;44.94;100617.84;5407597;32;33571;-83
2023/08/21 16:36:48;;;;;;;4.93;4.10;;;;;;;31.29;45.67;100615.25;5404058;32;33013;-84
2023/08/21 16:39:51;;;;;;;6.20;4.28;;;;;;;31.21;46.67;100618.78;5403935;32;33760;-84
2023/08/21 16:42:54;;;;;;;5.18;4.68;;;;;;;31.19;47.72;100623.81;5404231;32;33370;-83
2023/08/21 16:45:56;;;;;;;6.28;5.00;;;;;;;31.08;47.04;100619.59;5408201;32;33387;-84
2023/08/21 16:49:03;;;;;;;6.43;5.12;;;;;;;31.01;47.78;100619.19;5418644;32;34847;-84
2023/08/21 16:52:05;;;;;;;5.85;4.75;;;;;;;30.96;46.75;100620.13;5409362;32;33994;-83
2023/08/21 16:55:09;;;;;;;5.90;5.03;;;;;;;30.84;50.93;100620.63;5403204;32;34112;-83
2023/08/21 16:58:14;;;;;;;7.18;4.55;;;;;;;30.75;51.18;100625.22;5404480;32;33458;-83
2023/08/21 17:01:17;;;;;;;6.60;5.37;;;;;;;30.64;50.39;100624.59;5391217;32;32893;-83
2023/08/21 17:04:20;;;;;;;5.10;4.57;;;;;;;30.54;52.33;100619.22;5416368;32;34041;-83
2023/08/21 17:07:24;;;;;;;5.50;5.00;;;;;;;30.43;52.52;100618.59;5403167;32;33350;-83
